sensor_id;sensor_type;location;lat;lon;timestamp;P1;durP1;ratioP1;P2;durP2;ratioP2
47309;SDS011;33046;52.270;6.832;2022-10-30T00:01:58;7.82;;;3.78;;
47309;SDS011;33046;52.270;6.832;2022-10-30T00:04:05;7.80;;;3.90;;
47309;SDS011;33046;52.270;6.832;2022-10-30T00:06:11;12.68;;;5.70;;
47309;SDS011;33046;52.270;6.832;2022-10-30T00:08:19;13.70;;;3.83;;
47309;SDS011;33046;52.270;6.832;2022-10-30T00:10:27;14.30;;;3.80;;
47309;SDS011;33046;52.270;6.832;2022-10-30T00:12:34;13.20;;;5.40;;
47309;SDS011;33046;52.270;6.832;2022-10-30T00:14:42;13.27;;;4.55;;
47309;SDS011;33046;52.270;6.832;2022-10-30T00:16:49;12.43;;;4.25;;
47309;SDS011;33046;52.270;6.832;2022-10-30T00:18:56;11.00;;;4.03;;
47309;SDS011;33046;52.270;6.832;2022-10-30T00:21:03;8.80;;;4.30;;
47309;SDS011;33046;52.270;6.832;2022-10-30T00:23:12;11.82;;;5.25;;
47309;SDS011;33046;52.270;6.832;2022-10-30T00:25:19;7.70;;;3.95;;
47309;SDS011;33046;52.270;6.832;2022-10-30T00:27:26;11.32;;;3.67;;
47309;SDS011;33046;52.270;6.832;2022-10-30T00:29:33;9.88;;;3.83;;
47309;SDS011;33046;52.270;6.832;2022-10-30T00:31:41;10.95;;;4.47;;
47309;SDS011;33046;52.270;6.832;2022-10-30T00:33:48;15.20;;;6.35;;
47309;SDS011;33046;52.270;6.832;2022-10-30T00:35:55;14.10;;;5.38;;
47309;SDS011;33046;52.270;6.832;2022-10-30T00:38:02;10.15;;;4.10;;
47309;SDS011;33046;52.270;6.832;2022-10-30T00:40:11;12.00;;;5.07;;
47309;SDS011;33046;52.270;6.832;2022-10-30T00:42:20;11.63;;;4.93;;
47309;SDS011;33046;52.270;6.832;2022-10-30T00:44:37;11.23;;;4.70;;
47309;SDS011;33046;52.270;6.832;2022-10-30T00:46:50;11.20;;;4.47;;
47309;SDS011;33046;52.270;6.832;2022-10-30T00:48:58;13.63;;;3.92;;
47309;SDS011;33046;52.270;6.832;2022-10-30T00:51:08;11.20;;;4.85;;
47309;SDS011;33046;52.270;6.832;2022-10-30T00:53:17;9.15;;;4.80;;
47309;SDS011;33046;52.270;6.832;2022-10-30T00:55:27;10.48;;;4.20;;
47309;SDS011;33046;52.270;6.832;2022-10-30T00:57:36;13.85;;;4.88;;
47309;SDS011;33046;52.270;6.832;2022-10-30T00:59:44;8.93;;;4.05;;
47309;SDS011;33046;52.270;6.832;2022-10-30T01:01:53;9.20;;;4.80;;
47309;SDS011;33046;52.270;6.832;2022-10-30T01:04:00;12.85;;;6.25;;
47309;SDS011;33046;52.270;6.832;2022-10-30T01:06:10;10.82;;;4.43;;
47309;SDS011;33046;52.270;6.832;2022-10-30T01:08:19;11.68;;;3.72;;
47309;SDS011;33046;52.270;6.832;2022-10-30T01:10:26;16.23;;;4.72;;
47309;SDS011;33046;52.270;6.832;2022-10-30T01:12:33;11.43;;;4.55;;
47309;SDS011;33046;52.270;6.832;2022-10-30T01:14:42;11.70;;;5.43;;
47309;SDS011;33046;52.270;6.832;2022-10-30T01:16:59;11.52;;;4.13;;
47309;SDS011;33046;52.270;6.832;2022-10-30T01:19:23;10.30;;;4.25;;
47309;SDS011;33046;52.270;6.832;2022-10-30T01:21:41;18.50;;;4.63;;
47309;SDS011;33046;52.270;6.832;2022-10-30T01:24:00;10.82;;;5.10;;
47309;SDS011;33046;52.270;6.832;2022-10-30T01:26:25;8.98;;;4.90;;
47309;SDS011;33046;52.270;6.832;2022-10-30T01:28:46;8.90;;;4.38;;
47309;SDS011;33046;52.270;6.832;2022-10-30T01:31:09;8.50;;;4.00;;
47309;SDS011;33046;52.270;6.832;2022-10-30T01:33:24;8.60;;;5.07;;
47309;SDS011;33046;52.270;6.832;2022-10-30T01:35:44;7.97;;;5.00;;
47309;SDS011;33046;52.270;6.832;2022-10-30T01:38:00;14.32;;;5.57;;
47309;SDS011;33046;52.270;6.832;2022-10-30T01:40:13;12.07;;;5.20;;
47309;SDS011;33046;52.270;6.832;2022-10-30T01:42:41;9.05;;;4.00;;
47309;SDS011;33046;52.270;6.832;2022-10-30T01:44:53;11.70;;;3.58;;
47309;SDS011;33046;52.270;6.832;2022-10-30T01:49:43;14.10;;;5.47;;
47309;SDS011;33046;52.270;6.832;2022-10-30T01:52:12;11.63;;;6.43;;
47309;SDS011;33046;52.270;6.832;2022-10-30T01:54:29;7.28;;;4.38;;
47309;SDS011;33046;52.270;6.832;2022-10-30T01:56:44;7.65;;;5.20;;
47309;SDS011;33046;52.270;6.832;2022-10-30T01:59:02;9.10;;;4.97;;
47309;SDS011;33046;52.270;6.832;2022-10-30T02:01:14;16.80;;;5.38;;
47309;SDS011;33046;52.270;6.832;2022-10-30T02:03:21;10.95;;;4.53;;
47309;SDS011;33046;52.270;6.832;2022-10-30T02:05:31;12.15;;;4.68;;
47309;SDS011;33046;52.270;6.832;2022-10-30T02:09:49;8.45;;;4.28;;
47309;SDS011;33046;52.270;6.832;2022-10-30T02:11:56;9.90;;;4.75;;
47309;SDS011;33046;52.270;6.832;2022-10-30T02:14:05;11.10;;;5.15;;
47309;SDS011;33046;52.270;6.832;2022-10-30T02:16:14;10.05;;;5.20;;
47309;SDS011;33046;52.270;6.832;2022-10-30T02:18:21;11.10;;;5.07;;
47309;SDS011;33046;52.270;6.832;2022-10-30T02:20:29;15.65;;;7.60;;
47309;SDS011;33046;52.270;6.832;2022-10-30T02:22:37;7.65;;;4.05;;
47309;SDS011;33046;52.270;6.832;2022-10-30T02:24:44;6.63;;;3.88;;
47309;SDS011;33046;52.270;6.832;2022-10-30T02:26:51;9.60;;;4.70;;
47309;SDS011;33046;52.270;6.832;2022-10-30T02:28:58;13.40;;;5.20;;
47309;SDS011;33046;52.270;6.832;2022-10-30T02:31:05;13.50;;;4.82;;
47309;SDS011;33046;52.270;6.832;2022-10-30T02:33:12;12.25;;;4.45;;
47309;SDS011;33046;52.270;6.832;2022-10-30T02:35:19;12.93;;;4.43;;
47309;SDS011;33046;52.270;6.832;2022-10-30T02:37:27;8.25;;;4.30;;
47309;SDS011;33046;52.270;6.832;2022-10-30T02:39:35;10.57;;;4.57;;
47309;SDS011;33046;52.270;6.832;2022-10-30T02:41:42;10.75;;;5.22;;
47309;SDS011;33046;52.270;6.832;2022-10-30T02:43:50;7.38;;;4.57;;
47309;SDS011;33046;52.270;6.832;2022-10-30T02:45:57;9.70;;;4.28;;
47309;SDS011;33046;52.270;6.832;2022-10-30T02:48:04;12.68;;;4.75;;
47309;SDS011;33046;52.270;6.832;2022-10-30T02:50:11;12.93;;;4.85;;
47309;SDS011;33046;52.270;6.832;2022-10-30T02:52:19;9.20;;;5.38;;
47309;SDS011;33046;52.270;6.832;2022-10-30T02:54:27;11.20;;;4.63;;
47309;SDS011;33046;52.270;6.832;2022-10-30T02:56:34;8.43;;;4.30;;
47309;SDS011;33046;52.270;6.832;2022-10-30T02:58:41;8.70;;;3.97;;
47309;SDS011;33046;52.270;6.832;2022-10-30T03:00:48;11.20;;;4.60;;
47309;SDS011;33046;52.270;6.832;2022-10-30T03:02:55;13.02;;;4.80;;
47309;SDS011;33046;52.270;6.832;2022-10-30T03:05:03;12.20;;;4.65;;
47309;SDS011;33046;52.270;6.832;2022-10-30T03:07:10;7.47;;;4.38;;
47309;SDS011;33046;52.270;6.832;2022-10-30T03:09:17;10.45;;;4.65;;
47309;SDS011;33046;52.270;6.832;2022-10-30T03:11:25;13.00;;;4.82;;
47309;SDS011;33046;52.270;6.832;2022-10-30T03:13:34;10.88;;;4.63;;
47309;SDS011;33046;52.270;6.832;2022-10-30T03:15:41;11.05;;;6.03;;
47309;SDS011;33046;52.270;6.832;2022-10-30T03:17:48;14.57;;;4.55;;
47309;SDS011;33046;52.270;6.832;2022-10-30T03:19:55;12.27;;;5.07;;
47309;SDS011;33046;52.270;6.832;2022-10-30T03:22:02;9.90;;;4.70;;
47309;SDS011;33046;52.270;6.832;2022-10-30T03:24:09;10.02;;;5.50;;
47309;SDS011;33046;52.270;6.832;2022-10-30T03:26:16;10.98;;;4.95;;
47309;SDS011;33046;52.270;6.832;2022-10-30T03:28:30;7.43;;;4.32;;
47309;SDS011;33046;52.270;6.832;2022-10-30T03:30:37;9.63;;;5.20;;
47309;SDS011;33046;52.270;6.832;2022-10-30T03:32:44;10.85;;;4.70;;
47309;SDS011;33046;52.270;6.832;2022-10-30T03:34:52;11.52;;;4.72;;
47309;SDS011;33046;52.270;6.832;2022-10-30T03:36:59;10.10;;;4.78;;
47309;SDS011;33046;52.270;6.832;2022-10-30T03:39:06;11.15;;;4.95;;
47309;SDS011;33046;52.270;6.832;2022-10-30T03:41:14;13.80;;;5.47;;
47309;SDS011;33046;52.270;6.832;2022-10-30T03:43:23;12.20;;;5.43;;
47309;SDS011;33046;52.270;6.832;2022-10-30T03:45:32;9.90;;;4.35;;
47309;SDS011;33046;52.270;6.832;2022-10-30T03:47:42;10.23;;;4.45;;
47309;SDS011;33046;52.270;6.832;2022-10-30T03:49:49;12.95;;;6.07;;
47309;SDS011;33046;52.270;6.832;2022-10-30T03:51:58;8.40;;;4.82;;
47309;SDS011;33046;52.270;6.832;2022-10-30T03:54:05;8.65;;;5.07;;
47309;SDS011;33046;52.270;6.832;2022-10-30T03:56:12;14.90;;;5.03;;
47309;SDS011;33046;52.270;6.832;2022-10-30T03:58:26;11.70;;;5.15;;
47309;SDS011;33046;52.270;6.832;2022-10-30T04:00:39;13.88;;;5.13;;
47309;SDS011;33046;52.270;6.832;2022-10-30T04:02:46;10.57;;;5.68;;
47309;SDS011;33046;52.270;6.832;2022-10-30T04:04:55;6.05;;;4.50;;
47309;SDS011;33046;52.270;6.832;2022-10-30T04:07:02;8.20;;;5.18;;
47309;SDS011;33046;52.270;6.832;2022-10-30T04:09:09;10.55;;;4.60;;
47309;SDS011;33046;52.270;6.832;2022-10-30T04:11:19;12.93;;;5.18;;
47309;SDS011;33046;52.270;6.832;2022-10-30T04:13:26;12.32;;;5.43;;
47309;SDS011;33046;52.270;6.832;2022-10-30T04:15:34;11.73;;;4.40;;
47309;SDS011;33046;52.270;6.832;2022-10-30T04:17:48;8.70;;;4.95;;
47309;SDS011;33046;52.270;6.832;2022-10-30T04:19:55;9.70;;;5.32;;
47309;SDS011;33046;52.270;6.832;2022-10-30T04:22:02;9.00;;;4.95;;
47309;SDS011;33046;52.270;6.832;2022-10-30T04:24:09;13.88;;;5.75;;
47309;SDS011;33046;52.270;6.832;2022-10-30T04:26:16;9.75;;;5.65;;
47309;SDS011;33046;52.270;6.832;2022-10-30T04:28:24;10.63;;;4.78;;
47309;SDS011;33046;52.270;6.832;2022-10-30T04:30:31;9.30;;;5.47;;
47309;SDS011;33046;52.270;6.832;2022-10-30T04:32:44;10.43;;;5.43;;
47309;SDS011;33046;52.270;6.832;2022-10-30T04:34:52;9.45;;;5.53;;
47309;SDS011;33046;52.270;6.832;2022-10-30T04:36:59;8.73;;;4.63;;
47309;SDS011;33046;52.270;6.832;2022-10-30T04:39:07;10.30;;;4.80;;
47309;SDS011;33046;52.270;6.832;2022-10-30T04:41:15;7.13;;;4.80;;
47309;SDS011;33046;52.270;6.832;2022-10-30T04:43:37;10.10;;;4.43;;
47309;SDS011;33046;52.270;6.832;2022-10-30T04:45:44;11.90;;;6.45;;
47309;SDS011;33046;52.270;6.832;2022-10-30T04:47:51;16.25;;;5.45;;
47309;SDS011;33046;52.270;6.832;2022-10-30T04:49:59;13.05;;;5.40;;
47309;SDS011;33046;52.270;6.832;2022-10-30T04:52:06;13.70;;;6.63;;
47309;SDS011;33046;52.270;6.832;2022-10-30T04:54:13;9.60;;;4.78;;
47309;SDS011;33046;52.270;6.832;2022-10-30T04:56:20;18.88;;;6.38;;
47309;SDS011;33046;52.270;6.832;2022-10-30T04:58:27;14.02;;;4.75;;
47309;SDS011;33046;52.270;6.832;2022-10-30T05:00:41;11.30;;;5.07;;
47309;SDS011;33046;52.270;6.832;2022-10-30T05:02:50;14.55;;;5.97;;
47309;SDS011;33046;52.270;6.832;2022-10-30T05:04:57;10.98;;;5.43;;
47309;SDS011;33046;52.270;6.832;2022-10-30T05:07:05;7.30;;;4.78;;
47309;SDS011;33046;52.270;6.832;2022-10-30T05:09:12;11.38;;;4.95;;
47309;SDS011;33046;52.270;6.832;2022-10-30T05:11:19;12.77;;;5.00;;
47309;SDS011;33046;52.270;6.832;2022-10-30T05:13:26;13.88;;;5.75;;
47309;SDS011;33046;52.270;6.832;2022-10-30T05:15:33;9.95;;;4.43;;
47309;SDS011;33046;52.270;6.832;2022-10-30T05:17:40;13.68;;;6.32;;
47309;SDS011;33046;52.270;6.832;2022-10-30T05:19:47;9.15;;;5.07;;
47309;SDS011;33046;52.270;6.832;2022-10-30T05:21:54;16.15;;;6.28;;
47309;SDS011;33046;52.270;6.832;2022-10-30T05:24:03;10.73;;;5.38;;
47309;SDS011;33046;52.270;6.832;2022-10-30T05:26:17;9.93;;;5.43;;
47309;SDS011;33046;52.270;6.832;2022-10-30T05:28:24;8.32;;;4.82;;
47309;SDS011;33046;52.270;6.832;2022-10-30T05:30:35;10.98;;;5.18;;
47309;SDS011;33046;52.270;6.832;2022-10-30T05:32:49;8.02;;;5.60;;
47309;SDS011;33046;52.270;6.832;2022-10-30T05:34:56;15.05;;;7.13;;
47309;SDS011;33046;52.270;6.832;2022-10-30T05:37:03;9.43;;;5.28;;
47309;SDS011;33046;52.270;6.832;2022-10-30T05:39:11;6.60;;;4.75;;
47309;SDS011;33046;52.270;6.832;2022-10-30T05:41:21;10.88;;;5.68;;
47309;SDS011;33046;52.270;6.832;2022-10-30T05:43:28;12.60;;;6.53;;
47309;SDS011;33046;52.270;6.832;2022-10-30T05:45:35;13.63;;;5.88;;
47309;SDS011;33046;52.270;6.832;2022-10-30T05:47:52;9.45;;;5.00;;
47309;SDS011;33046;52.270;6.832;2022-10-30T05:50:01;8.85;;;5.57;;
47309;SDS011;33046;52.270;6.832;2022-10-30T05:52:08;9.43;;;5.22;;
47309;SDS011;33046;52.270;6.832;2022-10-30T05:54:16;11.27;;;5.18;;
47309;SDS011;33046;52.270;6.832;2022-10-30T05:56:36;9.90;;;6.18;;
47309;SDS011;33046;52.270;6.832;2022-10-30T05:58:43;13.55;;;5.32;;
47309;SDS011;33046;52.270;6.832;2022-10-30T06:00:50;13.73;;;6.45;;
47309;SDS011;33046;52.270;6.832;2022-10-30T06:03:10;13.07;;;5.55;;
47309;SDS011;33046;52.270;6.832;2022-10-30T06:05:19;10.05;;;5.10;;
47309;SDS011;33046;52.270;6.832;2022-10-30T06:07:26;6.53;;;4.88;;
47309;SDS011;33046;52.270;6.832;2022-10-30T06:09:34;8.63;;;5.00;;
47309;SDS011;33046;52.270;6.832;2022-10-30T06:11:44;13.93;;;5.97;;
47309;SDS011;33046;52.270;6.832;2022-10-30T06:13:52;8.73;;;5.65;;
47309;SDS011;33046;52.270;6.832;2022-10-30T06:16:06;12.63;;;5.35;;
47309;SDS011;33046;52.270;6.832;2022-10-30T06:18:31;12.57;;;6.28;;
47309;SDS011;33046;52.270;6.832;2022-10-30T06:20:47;15.48;;;6.35;;
47309;SDS011;33046;52.270;6.832;2022-10-30T06:23:23;7.95;;;5.43;;
47309;SDS011;33046;52.270;6.832;2022-10-30T06:25:37;8.90;;;5.03;;
47309;SDS011;33046;52.270;6.832;2022-10-30T06:27:51;13.48;;;5.93;;
47309;SDS011;33046;52.270;6.832;2022-10-30T06:29:58;9.00;;;4.95;;
47309;SDS011;33046;52.270;6.832;2022-10-30T06:32:05;9.55;;;5.22;;
47309;SDS011;33046;52.270;6.832;2022-10-30T06:34:13;10.93;;;4.90;;
47309;SDS011;33046;52.270;6.832;2022-10-30T06:36:22;13.50;;;5.93;;
47309;SDS011;33046;52.270;6.832;2022-10-30T06:38:28;9.05;;;5.25;;
47309;SDS011;33046;52.270;6.832;2022-10-30T06:40:38;11.75;;;6.57;;
47309;SDS011;33046;52.270;6.832;2022-10-30T06:43:04;9.82;;;5.32;;
47309;SDS011;33046;52.270;6.832;2022-10-30T06:45:22;10.90;;;6.18;;
47309;SDS011;33046;52.270;6.832;2022-10-30T06:47:33;7.43;;;5.68;;
47309;SDS011;33046;52.270;6.832;2022-10-30T06:49:40;9.48;;;5.00;;
47309;SDS011;33046;52.270;6.832;2022-10-30T06:51:46;12.65;;;5.45;;
47309;SDS011;33046;52.270;6.832;2022-10-30T06:53:54;8.95;;;5.32;;
47309;SDS011;33046;52.270;6.832;2022-10-30T06:56:37;12.82;;;6.10;;
47309;SDS011;33046;52.270;6.832;2022-10-30T06:58:52;16.90;;;5.32;;
47309;SDS011;33046;52.270;6.832;2022-10-30T07:01:28;11.07;;;6.93;;
47309;SDS011;33046;52.270;6.832;2022-10-30T07:03:52;15.00;;;5.65;;
47309;SDS011;33046;52.270;6.832;2022-10-30T07:05:59;9.57;;;5.70;;
47309;SDS011;33046;52.270;6.832;2022-10-30T07:08:06;12.15;;;5.82;;
47309;SDS011;33046;52.270;6.832;2022-10-30T07:10:13;13.68;;;6.22;;
47309;SDS011;33046;52.270;6.832;2022-10-30T07:12:43;12.95;;;5.68;;
47309;SDS011;33046;52.270;6.832;2022-10-30T07:15:13;10.05;;;6.45;;
47309;SDS011;33046;52.270;6.832;2022-10-30T07:17:31;10.20;;;5.88;;
47309;SDS011;33046;52.270;6.832;2022-10-30T07:19:46;14.77;;;5.45;;
47309;SDS011;33046;52.270;6.832;2022-10-30T07:21:53;9.57;;;5.43;;
47309;SDS011;33046;52.270;6.832;2022-10-30T07:24:00;11.02;;;6.22;;
47309;SDS011;33046;52.270;6.832;2022-10-30T07:26:11;11.10;;;6.38;;
47309;SDS011;33046;52.270;6.832;2022-10-30T07:28:25;9.25;;;5.50;;
47309;SDS011;33046;52.270;6.832;2022-10-30T07:31:01;13.48;;;6.60;;
47309;SDS011;33046;52.270;6.832;2022-10-30T07:33:31;11.07;;;6.47;;
47309;SDS011;33046;52.270;6.832;2022-10-30T07:35:49;14.38;;;6.85;;
47309;SDS011;33046;52.270;6.832;2022-10-30T07:38:11;12.98;;;6.72;;
47309;SDS011;33046;52.270;6.832;2022-10-30T07:40:28;13.48;;;6.63;;
47309;SDS011;33046;52.270;6.832;2022-10-30T07:42:44;12.25;;;7.28;;
47309;SDS011;33046;52.270;6.832;2022-10-30T07:52:04;11.82;;;6.38;;
47309;SDS011;33046;52.270;6.832;2022-10-30T07:54:11;9.73;;;6.97;;
47309;SDS011;33046;52.270;6.832;2022-10-30T07:59:26;12.27;;;7.80;;
47309;SDS011;33046;52.270;6.832;2022-10-30T08:01:45;8.38;;;6.63;;
47309;SDS011;33046;52.270;6.832;2022-10-30T08:04:04;13.43;;;7.35;;
47309;SDS011;33046;52.270;6.832;2022-10-30T08:06:10;15.10;;;7.30;;
47309;SDS011;33046;52.270;6.832;2022-10-30T08:08:19;13.15;;;7.32;;
47309;SDS011;33046;52.270;6.832;2022-10-30T08:10:34;12.73;;;6.53;;
47309;SDS011;33046;52.270;6.832;2022-10-30T08:12:41;11.70;;;6.55;;
47309;SDS011;33046;52.270;6.832;2022-10-30T08:14:48;9.35;;;6.57;;
47309;SDS011;33046;52.270;6.832;2022-10-30T08:16:55;11.30;;;7.35;;
47309;SDS011;33046;52.270;6.832;2022-10-30T08:19:03;15.60;;;6.60;;
47309;SDS011;33046;52.270;6.832;2022-10-30T08:21:10;14.40;;;6.55;;
47309;SDS011;33046;52.270;6.832;2022-10-30T08:23:29;8.23;;;7.05;;
47309;SDS011;33046;52.270;6.832;2022-10-30T08:32:49;12.18;;;7.68;;
47309;SDS011;33046;52.270;6.832;2022-10-30T08:35:16;14.80;;;7.60;;
47309;SDS011;33046;52.270;6.832;2022-10-30T08:43:31;13.43;;;7.32;;
47309;SDS011;33046;52.270;6.832;2022-10-30T08:47:57;13.73;;;7.05;;
47309;SDS011;33046;52.270;6.832;2022-10-30T08:50:07;16.70;;;8.45;;
47309;SDS011;33046;52.270;6.832;2022-10-30T08:52:15;14.02;;;8.20;;
47309;SDS011;33046;52.270;6.832;2022-10-30T08:54:26;11.73;;;7.60;;
47309;SDS011;33046;52.270;6.832;2022-10-30T08:56:33;9.18;;;6.18;;
47309;SDS011;33046;52.270;6.832;2022-10-30T08:58:50;8.27;;;5.40;;
47309;SDS011;33046;52.270;6.832;2022-10-30T09:00:57;7.85;;;6.20;;
47309;SDS011;33046;52.270;6.832;2022-10-30T09:03:24;7.85;;;6.68;;
47309;SDS011;33046;52.270;6.832;2022-10-30T09:06:07;13.95;;;6.82;;
47309;SDS011;33046;52.270;6.832;2022-10-30T09:08:32;11.88;;;6.40;;
47309;SDS011;33046;52.270;6.832;2022-10-30T09:10:52;14.45;;;6.63;;
47309;SDS011;33046;52.270;6.832;2022-10-30T09:13:00;8.77;;;6.27;;
47309;SDS011;33046;52.270;6.832;2022-10-30T09:15:08;13.20;;;7.55;;
47309;SDS011;33046;52.270;6.832;2022-10-30T09:17:27;11.23;;;6.53;;
47309;SDS011;33046;52.270;6.832;2022-10-30T09:19:34;10.32;;;7.13;;
47309;SDS011;33046;52.270;6.832;2022-10-30T09:21:41;14.43;;;7.38;;
47309;SDS011;33046;52.270;6.832;2022-10-30T09:23:48;11.93;;;7.65;;
47309;SDS011;33046;52.270;6.832;2022-10-30T09:26:13;10.15;;;6.20;;
47309;SDS011;33046;52.270;6.832;2022-10-30T09:28:30;12.40;;;6.93;;
47309;SDS011;33046;52.270;6.832;2022-10-30T09:30:56;12.45;;;7.72;;
47309;SDS011;33046;52.270;6.832;2022-10-30T09:33:08;10.73;;;6.30;;
47309;SDS011;33046;52.270;6.832;2022-10-30T09:35:35;12.15;;;6.80;;
47309;SDS011;33046;52.270;6.832;2022-10-30T09:37:42;11.32;;;6.18;;
47309;SDS011;33046;52.270;6.832;2022-10-30T09:39:51;10.80;;;6.90;;
47309;SDS011;33046;52.270;6.832;2022-10-30T09:42:07;11.90;;;7.82;;
47309;SDS011;33046;52.270;6.832;2022-10-30T09:44:42;11.88;;;7.07;;
47309;SDS011;33046;52.270;6.832;2022-10-30T09:47:11;14.07;;;7.57;;
47309;SDS011;33046;52.270;6.832;2022-10-30T09:49:30;10.27;;;7.28;;
47309;SDS011;33046;52.270;6.832;2022-10-30T09:51:56;10.93;;;6.90;;
47309;SDS011;33046;52.270;6.832;2022-10-30T09:54:16;8.63;;;7.05;;
47309;SDS011;33046;52.270;6.832;2022-10-30T09:56:35;12.95;;;7.10;;
47309;SDS011;33046;52.270;6.832;2022-10-30T09:58:51;13.63;;;7.20;;
47309;SDS011;33046;52.270;6.832;2022-10-30T10:01:09;14.60;;;8.57;;
47309;SDS011;33046;52.270;6.832;2022-10-30T10:03:35;14.85;;;8.95;;
47309;SDS011;33046;52.270;6.832;2022-10-30T10:06:25;14.90;;;8.23;;
47309;SDS011;33046;52.270;6.832;2022-10-30T10:08:45;15.68;;;8.50;;
47309;SDS011;33046;52.270;6.832;2022-10-30T10:11:15;11.02;;;8.05;;
47309;SDS011;33046;52.270;6.832;2022-10-30T10:13:28;12.35;;;6.80;;
47309;SDS011;33046;52.270;6.832;2022-10-30T10:17:47;12.93;;;7.85;;
47309;SDS011;33046;52.270;6.832;2022-10-30T10:19:56;18.00;;;9.00;;
47309;SDS011;33046;52.270;6.832;2022-10-30T10:22:05;15.57;;;8.40;;
47309;SDS011;33046;52.270;6.832;2022-10-30T10:24:19;12.70;;;8.38;;
47309;SDS011;33046;52.270;6.832;2022-10-30T10:26:30;12.82;;;7.10;;
47309;SDS011;33046;52.270;6.832;2022-10-30T10:28:52;16.25;;;7.82;;
47309;SDS011;33046;52.270;6.832;2022-10-30T10:31:06;11.93;;;8.43;;
47309;SDS011;33046;52.270;6.832;2022-10-30T10:33:32;13.23;;;7.40;;
47309;SDS011;33046;52.270;6.832;2022-10-30T10:35:52;12.27;;;8.65;;
47309;SDS011;33046;52.270;6.832;2022-10-30T10:38:09;12.95;;;8.48;;
47309;SDS011;33046;52.270;6.832;2022-10-30T10:40:25;13.38;;;8.65;;
47309;SDS011;33046;52.270;6.832;2022-10-30T10:42:46;13.50;;;7.53;;
47309;SDS011;33046;52.270;6.832;2022-10-30T10:45:06;13.82;;;7.28;;
47309;SDS011;33046;52.270;6.832;2022-10-30T10:47:28;15.20;;;8.85;;
47309;SDS011;33046;52.270;6.832;2022-10-30T10:50:00;18.05;;;8.35;;
47309;SDS011;33046;52.270;6.832;2022-10-30T10:52:17;12.98;;;7.78;;
47309;SDS011;33046;52.270;6.832;2022-10-30T10:56:38;13.57;;;7.45;;
47309;SDS011;33046;52.270;6.832;2022-10-30T10:58:49;15.27;;;7.63;;
47309;SDS011;33046;52.270;6.832;2022-10-30T11:00:59;14.80;;;8.93;;
47309;SDS011;33046;52.270;6.832;2022-10-30T11:03:07;11.35;;;7.55;;
47309;SDS011;33046;52.270;6.832;2022-10-30T11:05:20;13.88;;;7.75;;
47309;SDS011;33046;52.270;6.832;2022-10-30T11:07:36;14.82;;;7.43;;
47309;SDS011;33046;52.270;6.832;2022-10-30T11:09:51;11.90;;;7.90;;
47309;SDS011;33046;52.270;6.832;2022-10-30T11:11:59;18.35;;;8.73;;
47309;SDS011;33046;52.270;6.832;2022-10-30T11:14:07;13.15;;;7.93;;
47309;SDS011;33046;52.270;6.832;2022-10-30T11:18:29;18.13;;;8.00;;
47309;SDS011;33046;52.270;6.832;2022-10-30T11:20:39;12.10;;;7.68;;
47309;SDS011;33046;52.270;6.832;2022-10-30T11:22:50;16.10;;;7.75;;
47309;SDS011;33046;52.270;6.832;2022-10-30T11:25:00;11.15;;;6.90;;
47309;SDS011;33046;52.270;6.832;2022-10-30T11:27:25;17.10;;;7.50;;
47309;SDS011;33046;52.270;6.832;2022-10-30T11:29:32;15.48;;;7.75;;
47309;SDS011;33046;52.270;6.832;2022-10-30T11:31:40;15.35;;;7.00;;
47309;SDS011;33046;52.270;6.832;2022-10-30T11:33:48;17.23;;;8.77;;
47309;SDS011;33046;52.270;6.832;2022-10-30T11:35:55;1712.18;;;999.78;;
47309;SDS011;33046;52.270;6.832;2022-10-30T11:38:18;1999.90;;;999.90;;
47309;SDS011;33046;52.270;6.832;2022-10-30T11:40:25;1791.47;;;913.88;;
47309;SDS011;33046;52.270;6.832;2022-10-30T11:42:33;1999.90;;;999.90;;
47309;SDS011;33046;52.270;6.832;2022-10-30T11:44:40;1999.90;;;999.90;;
47309;SDS011;33046;52.270;6.832;2022-10-30T11:46:49;1003.78;;;540.85;;
47309;SDS011;33046;52.270;6.832;2022-10-30T11:48:56;1999.90;;;812.03;;
47309;SDS011;33046;52.270;6.832;2022-10-30T11:51:03;1999.90;;;948.92;;
47309;SDS011;33046;52.270;6.832;2022-10-30T11:53:10;1026.45;;;459.15;;
47309;SDS011;33046;52.270;6.832;2022-10-30T11:55:23;441.55;;;178.90;;
47309;SDS011;33046;52.270;6.832;2022-10-30T11:59:43;153.30;;;72.40;;
47309;SDS011;33046;52.270;6.832;2022-10-30T12:01:58;176.48;;;81.25;;
47309;SDS011;33046;52.270;6.832;2022-10-30T12:04:13;1447.07;;;741.42;;
47309;SDS011;33046;52.270;6.832;2022-10-30T12:06:25;594.85;;;425.73;;
47309;SDS011;33046;52.270;6.832;2022-10-30T12:08:33;119.28;;;64.47;;
47309;SDS011;33046;52.270;6.832;2022-10-30T12:10:43;92.40;;;51.13;;
47309;SDS011;33046;52.270;6.832;2022-10-30T12:12:52;80.93;;;40.55;;
47309;SDS011;33046;52.270;6.832;2022-10-30T12:15:06;97.00;;;51.08;;
47309;SDS011;33046;52.270;6.832;2022-10-30T12:17:15;31.13;;;16.05;;
47309;SDS011;33046;52.270;6.832;2022-10-30T12:19:23;33.75;;;16.88;;
47309;SDS011;33046;52.270;6.832;2022-10-30T12:21:34;57.33;;;31.73;;
47309;SDS011;33046;52.270;6.832;2022-10-30T12:23:44;74.93;;;39.72;;
47309;SDS011;33046;52.270;6.832;2022-10-30T12:25:59;75.40;;;37.65;;
47309;SDS011;33046;52.270;6.832;2022-10-30T12:28:13;59.53;;;28.75;;
47309;SDS011;33046;52.270;6.832;2022-10-30T12:30:21;61.75;;;35.97;;
47309;SDS011;33046;52.270;6.832;2022-10-30T12:32:31;49.38;;;22.73;;
47309;SDS011;33046;52.270;6.832;2022-10-30T12:34:52;64.05;;;35.03;;
47309;SDS011;33046;52.270;6.832;2022-10-30T12:37:32;58.05;;;29.65;;
47309;SDS011;33046;52.270;6.832;2022-10-30T12:39:46;1035.40;;;694.40;;
47309;SDS011;33046;52.270;6.832;2022-10-30T12:42:03;145.38;;;86.10;;
47309;SDS011;33046;52.270;6.832;2022-10-30T12:44:16;61.10;;;33.80;;
47309;SDS011;33046;52.270;6.832;2022-10-30T12:46:28;30.23;;;19.90;;
47309;SDS011;33046;52.270;6.832;2022-10-30T12:48:40;29.05;;;14.32;;
47309;SDS011;33046;52.270;6.832;2022-10-30T12:50:56;46.65;;;23.05;;
47309;SDS011;33046;52.270;6.832;2022-10-30T12:53:19;50.65;;;28.08;;
47309;SDS011;33046;52.270;6.832;2022-10-30T12:55:33;54.58;;;24.77;;
47309;SDS011;33046;52.270;6.832;2022-10-30T12:57:45;70.05;;;22.20;;
47309;SDS011;33046;52.270;6.832;2022-10-30T12:59:59;37.40;;;13.10;;
47309;SDS011;33046;52.270;6.832;2022-10-30T13:02:11;388.02;;;275.48;;
47309;SDS011;33046;52.270;6.832;2022-10-30T13:04:25;215.13;;;125.03;;
47309;SDS011;33046;52.270;6.832;2022-10-30T13:06:38;576.33;;;494.27;;
47309;SDS011;33046;52.270;6.832;2022-10-30T13:08:54;299.40;;;212.93;;
47309;SDS011;33046;52.270;6.832;2022-10-30T13:11:10;356.05;;;258.52;;
47309;SDS011;33046;52.270;6.832;2022-10-30T13:15:32;221.82;;;139.45;;
47309;SDS011;33046;52.270;6.832;2022-10-30T13:17:42;102.13;;;56.92;;
47309;SDS011;33046;52.270;6.832;2022-10-30T13:19:49;48.60;;;30.85;;
47309;SDS011;33046;52.270;6.832;2022-10-30T13:21:57;111.07;;;67.93;;
47309;SDS011;33046;52.270;6.832;2022-10-30T13:24:09;1619.78;;;861.33;;
47309;SDS011;33046;52.270;6.832;2022-10-30T13:26:26;266.85;;;171.93;;
47309;SDS011;33046;52.270;6.832;2022-10-30T13:28:41;177.00;;;94.47;;
47309;SDS011;33046;52.270;6.832;2022-10-30T13:30:55;549.75;;;228.93;;
47309;SDS011;33046;52.270;6.832;2022-10-30T13:33:08;1999.90;;;999.90;;
47309;SDS011;33046;52.270;6.832;2022-10-30T13:35:21;1999.90;;;892.40;;
47309;SDS011;33046;52.270;6.832;2022-10-30T13:37:37;642.25;;;277.58;;
47309;SDS011;33046;52.270;6.832;2022-10-30T13:39:52;176.70;;;65.97;;
47309;SDS011;33046;52.270;6.832;2022-10-30T13:42:11;1021.90;;;445.00;;
47309;SDS011;33046;52.270;6.832;2022-10-30T13:44:34;807.45;;;358.17;;
47309;SDS011;33046;52.270;6.832;2022-10-30T13:46:52;341.60;;;126.72;;